sensor_id;sensor_type;location;lat;lon;timestamp;P1;durP1;ratioP1;P2;durP2;ratioP2
37065;SDS011;22981;43.080;25.550;2023-04-24T00:02:04;7.45;;;3.85;;
37065;SDS011;22981;43.080;25.550;2023-04-24T00:04:32;5.47;;;3.67;;
37065;SDS011;22981;43.080;25.550;2023-04-24T00:06:59;6.40;;;4.22;;
37065;SDS011;22981;43.080;25.550;2023-04-24T00:09:28;8.38;;;4.70;;
37065;SDS011;22981;43.080;25.550;2023-04-24T00:11:55;6.37;;;3.87;;
37065;SDS011;22981;43.080;25.550;2023-04-24T00:14:23;5.55;;;4.17;;
37065;SDS011;22981;43.080;25.550;2023-04-24T00:16:51;7.08;;;4.10;;
37065;SDS011;22981;43.080;25.550;2023-04-24T00:19:18;9.35;;;4.53;;
37065;SDS011;22981;43.080;25.550;2023-04-24T00:21:46;5.83;;;3.70;;
37065;SDS011;22981;43.080;25.550;2023-04-24T00:24:17;7.17;;;4.22;;
37065;SDS011;22981;43.080;25.550;2023-04-24T00:26:45;7.85;;;4.00;;
37065;SDS011;22981;43.080;25.550;2023-04-24T00:29:12;9.43;;;4.35;;
37065;SDS011;22981;43.080;25.550;2023-04-24T00:31:40;5.58;;;3.72;;
37065;SDS011;22981;43.080;25.550;2023-04-24T00:34:07;9.60;;;3.98;;
37065;SDS011;22981;43.080;25.550;2023-04-24T00:36:36;5.72;;;3.83;;
37065;SDS011;22981;43.080;25.550;2023-04-24T00:39:03;6.45;;;4.05;;
37065;SDS011;22981;43.080;25.550;2023-04-24T00:41:31;5.20;;;3.75;;
37065;SDS011;22981;43.080;25.550;2023-04-24T00:43:58;11.45;;;5.70;;
37065;SDS011;22981;43.080;25.550;2023-04-24T00:46:26;8.00;;;4.60;;
37065;SDS011;22981;43.080;25.550;2023-04-24T00:48:54;8.15;;;4.30;;
37065;SDS011;22981;43.080;25.550;2023-04-24T00:51:24;8.45;;;4.12;;
37065;SDS011;22981;43.080;25.550;2023-04-24T00:53:52;7.00;;;4.17;;
37065;SDS011;22981;43.080;25.550;2023-04-24T00:56:20;8.73;;;5.22;;
37065;SDS011;22981;43.080;25.550;2023-04-24T00:58:49;10.30;;;6.40;;
37065;SDS011;22981;43.080;25.550;2023-04-24T01:01:17;13.35;;;7.45;;
37065;SDS011;22981;43.080;25.550;2023-04-24T01:03:49;8.38;;;6.28;;
37065;SDS011;22981;43.080;25.550;2023-04-24T01:06:18;28.90;;;24.92;;
37065;SDS011;22981;43.080;25.550;2023-04-24T01:08:46;19.87;;;15.63;;
37065;SDS011;22981;43.080;25.550;2023-04-24T01:11:15;17.90;;;13.32;;
37065;SDS011;22981;43.080;25.550;2023-04-24T01:13:42;19.40;;;13.40;;
37065;SDS011;22981;43.080;25.550;2023-04-24T01:16:11;13.55;;;9.60;;
37065;SDS011;22981;43.080;25.550;2023-04-24T01:18:38;14.63;;;12.03;;
37065;SDS011;22981;43.080;25.550;2023-04-24T01:21:06;12.58;;;7.30;;
37065;SDS011;22981;43.080;25.550;2023-04-24T01:23:37;11.73;;;8.43;;
37065;SDS011;22981;43.080;25.550;2023-04-24T01:26:04;22.02;;;17.20;;
37065;SDS011;22981;43.080;25.550;2023-04-24T01:28:32;13.45;;;8.83;;
37065;SDS011;22981;43.080;25.550;2023-04-24T01:31:00;10.40;;;8.28;;
37065;SDS011;22981;43.080;25.550;2023-04-24T01:33:27;7.83;;;7.05;;
37065;SDS011;22981;43.080;25.550;2023-04-24T01:35:55;8.38;;;5.20;;
37065;SDS011;22981;43.080;25.550;2023-04-24T01:38:23;8.83;;;7.92;;
37065;SDS011;22981;43.080;25.550;2023-04-24T01:40:50;13.43;;;8.88;;
37065;SDS011;22981;43.080;25.550;2023-04-24T01:43:19;11.15;;;7.70;;
37065;SDS011;22981;43.080;25.550;2023-04-24T01:45:46;10.50;;;6.53;;
37065;SDS011;22981;43.080;25.550;2023-04-24T01:48:14;10.00;;;7.00;;
37065;SDS011;22981;43.080;25.550;2023-04-24T01:50:41;9.20;;;6.22;;
37065;SDS011;22981;43.080;25.550;2023-04-24T01:53:09;7.70;;;5.70;;
37065;SDS011;22981;43.080;25.550;2023-04-24T01:55:36;10.82;;;7.20;;
37065;SDS011;22981;43.080;25.550;2023-04-24T01:58:04;7.47;;;5.42;;
37065;SDS011;22981;43.080;25.550;2023-04-24T02:00:32;7.00;;;6.28;;
37065;SDS011;22981;43.080;25.550;2023-04-24T02:03:00;7.15;;;6.05;;
37065;SDS011;22981;43.080;25.550;2023-04-24T02:05:27;9.28;;;6.15;;
37065;SDS011;22981;43.080;25.550;2023-04-24T02:07:55;8.38;;;5.20;;
37065;SDS011;22981;43.080;25.550;2023-04-24T02:10:23;13.70;;;5.72;;
37065;SDS011;22981;43.080;25.550;2023-04-24T02:12:50;8.53;;;5.28;;
37065;SDS011;22981;43.080;25.550;2023-04-24T02:15:18;7.47;;;5.47;;
37065;SDS011;22981;43.080;25.550;2023-04-24T02:17:46;8.50;;;4.70;;
37065;SDS011;22981;43.080;25.550;2023-04-24T02:20:13;6.55;;;5.03;;
37065;SDS011;22981;43.080;25.550;2023-04-24T02:22:41;7.75;;;5.12;;
37065;SDS011;22981;43.080;25.550;2023-04-24T02:25:08;6.87;;;5.40;;
37065;SDS011;22981;43.080;25.550;2023-04-24T02:27:36;8.95;;;5.47;;
37065;SDS011;22981;43.080;25.550;2023-04-24T02:30:04;7.25;;;5.30;;
37065;SDS011;22981;43.080;25.550;2023-04-24T02:32:33;5.80;;;5.20;;
37065;SDS011;22981;43.080;25.550;2023-04-24T02:35:01;7.75;;;5.55;;
37065;SDS011;22981;43.080;25.550;2023-04-24T02:37:28;7.10;;;4.70;;
37065;SDS011;22981;43.080;25.550;2023-04-24T02:39:56;12.75;;;5.70;;
37065;SDS011;22981;43.080;25.550;2023-04-24T02:42:23;7.28;;;5.90;;
37065;SDS011;22981;43.080;25.550;2023-04-24T02:44:51;17.80;;;7.92;;
37065;SDS011;22981;43.080;25.550;2023-04-24T02:47:18;13.45;;;7.83;;
37065;SDS011;22981;43.080;25.550;2023-04-24T02:49:46;8.73;;;6.10;;
37065;SDS011;22981;43.080;25.550;2023-04-24T02:52:14;9.78;;;6.05;;
37065;SDS011;22981;43.080;25.550;2023-04-24T02:54:42;12.73;;;5.85;;
37065;SDS011;22981;43.080;25.550;2023-04-24T02:57:10;7.22;;;6.12;;
37065;SDS011;22981;43.080;25.550;2023-04-24T02:59:37;6.05;;;5.28;;
37065;SDS011;22981;43.080;25.550;2023-04-24T03:02:05;6.20;;;5.60;;
37065;SDS011;22981;43.080;25.550;2023-04-24T03:04:32;10.48;;;6.35;;
37065;SDS011;22981;43.080;25.550;2023-04-24T03:07:00;7.95;;;6.22;;
37065;SDS011;22981;43.080;25.550;2023-04-24T03:09:27;6.80;;;6.03;;
37065;SDS011;22981;43.080;25.550;2023-04-24T03:11:55;8.98;;;7.30;;
37065;SDS011;22981;43.080;25.550;2023-04-24T03:14:23;8.90;;;6.78;;
37065;SDS011;22981;43.080;25.550;2023-04-24T03:16:51;11.30;;;7.03;;
37065;SDS011;22981;43.080;25.550;2023-04-24T03:19:18;10.00;;;7.42;;
37065;SDS011;22981;43.080;25.550;2023-04-24T03:21:46;16.42;;;10.15;;
37065;SDS011;22981;43.080;25.550;2023-04-24T03:24:14;33.63;;;18.52;;
37065;SDS011;22981;43.080;25.550;2023-04-24T03:26:41;14.03;;;10.43;;
37065;SDS011;22981;43.080;25.550;2023-04-24T03:29:09;11.85;;;7.72;;
37065;SDS011;22981;43.080;25.550;2023-04-24T03:31:37;11.78;;;7.42;;
37065;SDS011;22981;43.080;25.550;2023-04-24T03:34:04;9.20;;;6.85;;
37065;SDS011;22981;43.080;25.550;2023-04-24T03:36:32;9.88;;;6.87;;
37065;SDS011;22981;43.080;25.550;2023-04-24T03:39:00;14.90;;;7.58;;
37065;SDS011;22981;43.080;25.550;2023-04-24T03:41:27;10.28;;;7.40;;
37065;SDS011;22981;43.080;25.550;2023-04-24T03:43:55;22.67;;;8.48;;
37065;SDS011;22981;43.080;25.550;2023-04-24T03:46:23;8.08;;;6.08;;
37065;SDS011;22981;43.080;25.550;2023-04-24T03:48:51;9.15;;;6.12;;
37065;SDS011;22981;43.080;25.550;2023-04-24T03:51:18;43.15;;;25.00;;
37065;SDS011;22981;43.080;25.550;2023-04-24T03:53:47;65.70;;;33.80;;
37065;SDS011;22981;43.080;25.550;2023-04-24T03:56:15;187.70;;;93.27;;
37065;SDS011;22981;43.080;25.550;2023-04-24T03:58:43;54.40;;;36.35;;
37065;SDS011;22981;43.080;25.550;2023-04-24T04:01:10;17.12;;;9.30;;
37065;SDS011;22981;43.080;25.550;2023-04-24T04:03:38;9.83;;;7.10;;
37065;SDS011;22981;43.080;25.550;2023-04-24T04:06:06;13.18;;;8.80;;
37065;SDS011;22981;43.080;25.550;2023-04-24T04:08:35;9.43;;;7.53;;
37065;SDS011;22981;43.080;25.550;2023-04-24T04:11:03;12.45;;;9.08;;
37065;SDS011;22981;43.080;25.550;2023-04-24T04:13:30;63.68;;;36.98;;
37065;SDS011;22981;43.080;25.550;2023-04-24T04:15:58;46.13;;;27.48;;
37065;SDS011;22981;43.080;25.550;2023-04-24T04:18:25;29.60;;;17.15;;
37065;SDS011;22981;43.080;25.550;2023-04-24T04:20:59;15.10;;;8.60;;
37065;SDS011;22981;43.080;25.550;2023-04-24T04:23:24;16.05;;;10.50;;
37065;SDS011;22981;43.080;25.550;2023-04-24T04:25:54;10.88;;;6.95;;
37065;SDS011;22981;43.080;25.550;2023-04-24T04:28:22;9.43;;;6.08;;
37065;SDS011;22981;43.080;25.550;2023-04-24T04:30:50;14.63;;;8.75;;
37065;SDS011;22981;43.080;25.550;2023-04-24T04:33:22;15.18;;;9.58;;
37065;SDS011;22981;43.080;25.550;2023-04-24T04:35:54;7.80;;;6.08;;
37065;SDS011;22981;43.080;25.550;2023-04-24T04:38:26;9.18;;;5.90;;
37065;SDS011;22981;43.080;25.550;2023-04-24T04:40:55;9.13;;;5.97;;
37065;SDS011;22981;43.080;25.550;2023-04-24T04:43:23;11.28;;;5.28;;
37065;SDS011;22981;43.080;25.550;2023-04-24T04:45:51;11.65;;;5.75;;
37065;SDS011;22981;43.080;25.550;2023-04-24T04:48:20;11.90;;;6.03;;
37065;SDS011;22981;43.080;25.550;2023-04-24T04:50:48;12.68;;;6.00;;
37065;SDS011;22981;43.080;25.550;2023-04-24T04:53:15;9.20;;;6.83;;
37065;SDS011;22981;43.080;25.550;2023-04-24T04:55:43;12.33;;;7.25;;
37065;SDS011;22981;43.080;25.550;2023-04-24T04:58:11;16.20;;;9.95;;
37065;SDS011;22981;43.080;25.550;2023-04-24T05:00:39;12.40;;;9.30;;
37065;SDS011;22981;43.080;25.550;2023-04-24T05:03:07;8.28;;;5.97;;
37065;SDS011;22981;43.080;25.550;2023-04-24T05:05:34;9.45;;;5.15;;
37065;SDS011;22981;43.080;25.550;2023-04-24T05:08:03;6.92;;;5.83;;
37065;SDS011;22981;43.080;25.550;2023-04-24T05:10:31;10.20;;;6.10;;
37065;SDS011;22981;43.080;25.550;2023-04-24T05:12:58;11.75;;;5.87;;
37065;SDS011;22981;43.080;25.550;2023-04-24T05:15:26;10.63;;;5.33;;
37065;SDS011;22981;43.080;25.550;2023-04-24T05:17:54;8.30;;;5.30;;
37065;SDS011;22981;43.080;25.550;2023-04-24T05:20:21;8.43;;;5.55;;
37065;SDS011;22981;43.080;25.550;2023-04-24T05:22:49;6.83;;;4.60;;
37065;SDS011;22981;43.080;25.550;2023-04-24T05:25:16;9.40;;;5.30;;
37065;SDS011;22981;43.080;25.550;2023-04-24T05:27:44;9.58;;;5.10;;
37065;SDS011;22981;43.080;25.550;2023-04-24T05:30:12;8.48;;;5.90;;
37065;SDS011;22981;43.080;25.550;2023-04-24T05:32:40;9.70;;;6.42;;
37065;SDS011;22981;43.080;25.550;2023-04-24T05:35:08;24.23;;;15.20;;
37065;SDS011;22981;43.080;25.550;2023-04-24T05:37:35;15.05;;;10.58;;
37065;SDS011;22981;43.080;25.550;2023-04-24T05:40:03;18.32;;;9.93;;
37065;SDS011;22981;43.080;25.550;2023-04-24T05:42:31;20.95;;;14.80;;
37065;SDS011;22981;43.080;25.550;2023-04-24T05:44:59;16.80;;;7.67;;
37065;SDS011;22981;43.080;25.550;2023-04-24T05:47:26;10.05;;;7.20;;
37065;SDS011;22981;43.080;25.550;2023-04-24T05:49:54;8.48;;;6.15;;
37065;SDS011;22981;43.080;25.550;2023-04-24T05:52:21;13.90;;;7.90;;
37065;SDS011;22981;43.080;25.550;2023-04-24T05:54:49;15.68;;;8.00;;
37065;SDS011;22981;43.080;25.550;2023-04-24T05:57:16;12.25;;;9.48;;
37065;SDS011;22981;43.080;25.550;2023-04-24T05:59:44;10.10;;;8.23;;
37065;SDS011;22981;43.080;25.550;2023-04-24T06:02:11;14.70;;;9.45;;
37065;SDS011;22981;43.080;25.550;2023-04-24T06:04:39;21.45;;;13.83;;
37065;SDS011;22981;43.080;25.550;2023-04-24T06:07:07;13.20;;;8.10;;
37065;SDS011;22981;43.080;25.550;2023-04-24T06:09:34;23.77;;;15.20;;
37065;SDS011;22981;43.080;25.550;2023-04-24T06:12:02;37.03;;;23.10;;
37065;SDS011;22981;43.080;25.550;2023-04-24T06:14:30;11.33;;;6.97;;
37065;SDS011;22981;43.080;25.550;2023-04-24T06:16:57;8.93;;;6.92;;
37065;SDS011;22981;43.080;25.550;2023-04-24T06:19:25;10.35;;;6.67;;
37065;SDS011;22981;43.080;25.550;2023-04-24T06:21:52;12.35;;;8.55;;
37065;SDS011;22981;43.080;25.550;2023-04-24T06:24:20;11.90;;;6.75;;
37065;SDS011;22981;43.080;25.550;2023-04-24T06:26:48;9.10;;;5.53;;
37065;SDS011;22981;43.080;25.550;2023-04-24T06:29:16;10.15;;;5.42;;
37065;SDS011;22981;43.080;25.550;2023-04-24T06:31:44;9.63;;;5.80;;
37065;SDS011;22981;43.080;25.550;2023-04-24T06:34:11;8.85;;;5.33;;
37065;SDS011;22981;43.080;25.550;2023-04-24T06:36:39;9.85;;;5.90;;
37065;SDS011;22981;43.080;25.550;2023-04-24T06:39:06;9.20;;;5.62;;
37065;SDS011;22981;43.080;25.550;2023-04-24T06:41:34;8.83;;;5.55;;
37065;SDS011;22981;43.080;25.550;2023-04-24T06:44:01;7.45;;;4.65;;
37065;SDS011;22981;43.080;25.550;2023-04-24T06:46:29;8.50;;;5.60;;
37065;SDS011;22981;43.080;25.550;2023-04-24T06:48:57;6.90;;;5.00;;
37065;SDS011;22981;43.080;25.550;2023-04-24T06:51:25;8.30;;;4.60;;
37065;SDS011;22981;43.080;25.550;2023-04-24T06:53:57;8.23;;;4.22;;
37065;SDS011;22981;43.080;25.550;2023-04-24T06:56:25;7.25;;;4.67;;
37065;SDS011;22981;43.080;25.550;2023-04-24T06:58:54;6.40;;;3.83;;
37065;SDS011;22981;43.080;25.550;2023-04-24T07:01:22;6.67;;;4.55;;
37065;SDS011;22981;43.080;25.550;2023-04-24T07:03:50;8.85;;;4.00;;
37065;SDS011;22981;43.080;25.550;2023-04-24T07:06:17;8.68;;;4.60;;
37065;SDS011;22981;43.080;25.550;2023-04-24T07:08:47;9.50;;;4.28;;
37065;SDS011;22981;43.080;25.550;2023-04-24T07:11:14;10.20;;;4.78;;
37065;SDS011;22981;43.080;25.550;2023-04-24T07:13:42;7.78;;;5.00;;
37065;SDS011;22981;43.080;25.550;2023-04-24T07:16:10;8.95;;;4.42;;
37065;SDS011;22981;43.080;25.550;2023-04-24T07:18:38;5.92;;;3.65;;
37065;SDS011;22981;43.080;25.550;2023-04-24T07:21:05;5.15;;;3.50;;
37065;SDS011;22981;43.080;25.550;2023-04-24T07:23:33;6.05;;;3.70;;
37065;SDS011;22981;43.080;25.550;2023-04-24T07:26:00;10.78;;;3.85;;
37065;SDS011;22981;43.080;25.550;2023-04-24T07:28:28;5.28;;;3.42;;
37065;SDS011;22981;43.080;25.550;2023-04-24T07:30:58;7.12;;;3.62;;
37065;SDS011;22981;43.080;25.550;2023-04-24T07:33:26;7.45;;;3.98;;
37065;SDS011;22981;43.080;25.550;2023-04-24T07:35:54;4.85;;;3.55;;
37065;SDS011;22981;43.080;25.550;2023-04-24T07:38:21;8.60;;;4.45;;
37065;SDS011;22981;43.080;25.550;2023-04-24T07:40:51;5.83;;;3.45;;
37065;SDS011;22981;43.080;25.550;2023-04-24T07:43:19;6.47;;;3.87;;
37065;SDS011;22981;43.080;25.550;2023-04-24T07:45:49;9.15;;;4.05;;
37065;SDS011;22981;43.080;25.550;2023-04-24T07:48:17;5.53;;;4.03;;
37065;SDS011;22981;43.080;25.550;2023-04-24T07:50:47;4.75;;;3.37;;
37065;SDS011;22981;43.080;25.550;2023-04-24T07:53:14;5.15;;;3.42;;
37065;SDS011;22981;43.080;25.550;2023-04-24T07:55:43;6.60;;;3.20;;
37065;SDS011;22981;43.080;25.550;2023-04-24T07:58:13;4.25;;;3.85;;
37065;SDS011;22981;43.080;25.550;2023-04-24T08:00:41;5.12;;;3.17;;
37065;SDS011;22981;43.080;25.550;2023-04-24T08:03:08;5.55;;;3.47;;
37065;SDS011;22981;43.080;25.550;2023-04-24T08:05:38;5.67;;;3.83;;
37065;SDS011;22981;43.080;25.550;2023-04-24T08:08:07;5.33;;;3.62;;
37065;SDS011;22981;43.080;25.550;2023-04-24T08:13:06;8.88;;;3.85;;
37065;SDS011;22981;43.080;25.550;2023-04-24T08:15:44;5.55;;;2.95;;
37065;SDS011;22981;43.080;25.550;2023-04-24T08:20:49;4.08;;;3.33;;
37065;SDS011;22981;43.080;25.550;2023-04-24T08:23:21;7.15;;;3.87;;
37065;SDS011;22981;43.080;25.550;2023-04-24T08:25:49;6.08;;;3.27;;
37065;SDS011;22981;43.080;25.550;2023-04-24T08:28:25;6.78;;;3.90;;
37065;SDS011;22981;43.080;25.550;2023-04-24T08:30:58;9.00;;;4.20;;
37065;SDS011;22981;43.080;25.550;2023-04-24T08:33:31;6.15;;;4.40;;
37065;SDS011;22981;43.080;25.550;2023-04-24T08:36:06;6.20;;;3.72;;
37065;SDS011;22981;43.080;25.550;2023-04-24T08:38:39;9.10;;;4.25;;
37065;SDS011;22981;43.080;25.550;2023-04-24T08:41:06;6.22;;;3.77;;
37065;SDS011;22981;43.080;25.550;2023-04-24T08:43:35;5.67;;;4.03;;
37065;SDS011;22981;43.080;25.550;2023-04-24T08:46:05;4.08;;;3.42;;
37065;SDS011;22981;43.080;25.550;2023-04-24T08:48:32;5.00;;;3.25;;
37065;SDS011;22981;43.080;25.550;2023-04-24T08:51:01;5.90;;;3.50;;
37065;SDS011;22981;43.080;25.550;2023-04-24T08:53:31;5.53;;;3.95;;
37065;SDS011;22981;43.080;25.550;2023-04-24T08:56:00;5.50;;;3.83;;
37065;SDS011;22981;43.080;25.550;2023-04-24T08:58:29;4.70;;;3.98;;
37065;SDS011;22981;43.080;25.550;2023-04-24T09:00:58;7.67;;;4.58;;
37065;SDS011;22981;43.080;25.550;2023-04-24T09:03:27;5.55;;;4.05;;
37065;SDS011;22981;43.080;25.550;2023-04-24T09:05:55;7.28;;;3.60;;
37065;SDS011;22981;43.080;25.550;2023-04-24T09:08:25;4.70;;;3.37;;
37065;SDS011;22981;43.080;25.550;2023-04-24T09:10:54;4.80;;;3.60;;
37065;SDS011;22981;43.080;25.550;2023-04-24T09:13:23;6.85;;;3.77;;
37065;SDS011;22981;43.080;25.550;2023-04-24T09:15:51;4.67;;;3.12;;
37065;SDS011;22981;43.080;25.550;2023-04-24T09:18:19;7.08;;;3.33;;
37065;SDS011;22981;43.080;25.550;2023-04-24T09:21:00;9.43;;;3.95;;
37065;SDS011;22981;43.080;25.550;2023-04-24T09:23:29;6.22;;;3.42;;
37065;SDS011;22981;43.080;25.550;2023-04-24T09:25:57;5.75;;;3.77;;
37065;SDS011;22981;43.080;25.550;2023-04-24T09:28:30;4.92;;;3.60;;
37065;SDS011;22981;43.080;25.550;2023-04-24T09:31:12;8.88;;;3.77;;
37065;SDS011;22981;43.080;25.550;2023-04-24T09:33:55;4.75;;;3.17;;
37065;SDS011;22981;43.080;25.550;2023-04-24T09:36:32;3.92;;;3.40;;
37065;SDS011;22981;43.080;25.550;2023-04-24T09:39:15;4.97;;;3.35;;
37065;SDS011;22981;43.080;25.550;2023-04-24T09:41:54;3.05;;;2.75;;
37065;SDS011;22981;43.080;25.550;2023-04-24T09:44:26;7.58;;;3.15;;
37065;SDS011;22981;43.080;25.550;2023-04-24T09:46:58;4.22;;;3.17;;
37065;SDS011;22981;43.080;25.550;2023-04-24T09:49:31;3.30;;;3.00;;
37065;SDS011;22981;43.080;25.550;2023-04-24T09:52:04;4.65;;;3.55;;
37065;SDS011;22981;43.080;25.550;2023-04-24T09:54:33;5.28;;;3.22;;
37065;SDS011;22981;43.080;25.550;2023-04-24T09:57:03;4.75;;;3.30;;
37065;SDS011;22981;43.080;25.550;2023-04-24T09:59:32;7.72;;;3.10;;
37065;SDS011;22981;43.080;25.550;2023-04-24T10:02:00;3.58;;;3.15;;
37065;SDS011;22981;43.080;25.550;2023-04-24T10:04:28;3.90;;;3.35;;
37065;SDS011;22981;43.080;25.550;2023-04-24T10:06:56;7.53;;;3.08;;
37065;SDS011;22981;43.080;25.550;2023-04-24T10:09:25;3.52;;;3.20;;
37065;SDS011;22981;43.080;25.550;2023-04-24T10:11:54;4.97;;;3.27;;
37065;SDS011;22981;43.080;25.550;2023-04-24T10:14:23;6.05;;;3.25;;
37065;SDS011;22981;43.080;25.550;2023-04-24T10:16:53;8.58;;;4.08;;
37065;SDS011;22981;43.080;25.550;2023-04-24T10:19:22;5.03;;;3.22;;
37065;SDS011;22981;43.080;25.550;2023-04-24T10:21:52;5.47;;;3.35;;
37065;SDS011;22981;43.080;25.550;2023-04-24T10:24:21;3.90;;;3.22;;
37065;SDS011;22981;43.080;25.550;2023-04-24T10:26:48;4.85;;;3.00;;
37065;SDS011;22981;43.080;25.550;2023-04-24T10:29:17;5.10;;;3.33;;
37065;SDS011;22981;43.080;25.550;2023-04-24T10:31:46;5.75;;;3.20;;
37065;SDS011;22981;43.080;25.550;2023-04-24T10:34:15;5.65;;;3.30;;
37065;SDS011;22981;43.080;25.550;2023-04-24T10:36:50;6.22;;;3.10;;
37065;SDS011;22981;43.080;25.550;2023-04-24T10:39:19;4.28;;;3.40;;
37065;SDS011;22981;43.080;25.550;2023-04-24T10:41:50;4.75;;;2.87;;
37065;SDS011;22981;43.080;25.550;2023-04-24T10:44:18;6.17;;;3.50;;
37065;SDS011;22981;43.080;25.550;2023-04-24T10:46:52;4.85;;;3.15;;
37065;SDS011;22981;43.080;25.550;2023-04-24T10:49:31;4.12;;;3.15;;
37065;SDS011;22981;43.080;25.550;2023-04-24T10:52:02;5.80;;;3.58;;
37065;SDS011;22981;43.080;25.550;2023-04-24T10:54:34;4.97;;;3.50;;
37065;SDS011;22981;43.080;25.550;2023-04-24T10:59:49;4.97;;;3.42;;
37065;SDS011;22981;43.080;25.550;2023-04-24T11:02:19;4.55;;;3.27;;
37065;SDS011;22981;43.080;25.550;2023-04-24T11:04:49;3.90;;;3.05;;
37065;SDS011;22981;43.080;25.550;2023-04-24T11:07:19;5.97;;;3.17;;
37065;SDS011;22981;43.080;25.550;2023-04-24T11:09:47;5.67;;;3.35;;
37065;SDS011;22981;43.080;25.550;2023-04-24T11:12:17;6.03;;;3.77;;
37065;SDS011;22981;43.080;25.550;2023-04-24T11:17:35;3.50;;;3.20;;
37065;SDS011;22981;43.080;25.550;2023-04-24T11:20:06;11.40;;;3.60;;
37065;SDS011;22981;43.080;25.550;2023-04-24T11:22:36;5.30;;;3.30;;
37065;SDS011;22981;43.080;25.550;2023-04-24T11:25:08;4.28;;;2.90;;
37065;SDS011;22981;43.080;25.550;2023-04-24T11:27:41;5.28;;;3.22;;
37065;SDS011;22981;43.080;25.550;2023-04-24T11:30:11;5.25;;;3.30;;
37065;SDS011;22981;43.080;25.550;2023-04-24T11:32:41;4.78;;;3.60;;
37065;SDS011;22981;43.080;25.550;2023-04-24T11:40:16;13.93;;;8.15;;
37065;SDS011;22981;43.080;25.550;2023-04-24T11:42:50;5.92;;;3.20;;
37065;SDS011;22981;43.080;25.550;2023-04-24T11:45:21;5.40;;;4.00;;
37065;SDS011;22981;43.080;25.550;2023-04-24T11:47:51;5.12;;;3.02;;
37065;SDS011;22981;43.080;25.550;2023-04-24T11:50:21;5.33;;;3.92;;
37065;SDS011;22981;43.080;25.550;2023-04-24T11:52:51;11.80;;;7.40;;
37065;SDS011;22981;43.080;25.550;2023-04-24T11:57:55;5.03;;;3.30;;
37065;SDS011;22981;43.080;25.550;2023-04-24T12:00:25;7.85;;;5.47;;
37065;SDS011;22981;43.080;25.550;2023-04-24T12:03:04;6.30;;;3.60;;
37065;SDS011;22981;43.080;25.550;2023-04-24T12:05:34;9.93;;;3.80;;
37065;SDS011;22981;43.080;25.550;2023-04-24T12:08:01;5.30;;;3.55;;
37065;SDS011;22981;43.080;25.550;2023-04-24T12:10:31;6.45;;;4.40;;
37065;SDS011;22981;43.080;25.550;2023-04-24T12:13:00;5.67;;;3.83;;
37065;SDS011;22981;43.080;25.550;2023-04-24T12:15:27;5.70;;;3.27;;
37065;SDS011;22981;43.080;25.550;2023-04-24T12:17:55;5.37;;;3.60;;
37065;SDS011;22981;43.080;25.550;2023-04-24T12:20:30;4.15;;;3.00;;
37065;SDS011;22981;43.080;25.550;2023-04-24T12:23:00;5.10;;;3.33;;
37065;SDS011;22981;43.080;25.550;2023-04-24T12:25:28;7.12;;;3.37;;
37065;SDS011;22981;43.080;25.550;2023-04-24T12:30:41;4.15;;;2.75;;
37065;SDS011;22981;43.080;25.550;2023-04-24T12:33:17;7.70;;;3.25;;
37065;SDS011;22981;43.080;25.550;2023-04-24T12:35:45;7.05;;;3.50;;
37065;SDS011;22981;43.080;25.550;2023-04-24T12:38:15;5.28;;;2.80;;
37065;SDS011;22981;43.080;25.550;2023-04-24T12:40:44;4.45;;;2.80;;
37065;SDS011;22981;43.080;25.550;2023-04-24T12:43:16;5.78;;;3.22;;
37065;SDS011;22981;43.080;25.550;2023-04-24T12:45:45;4.80;;;3.00;;
37065;SDS011;22981;43.080;25.550;2023-04-24T12:48:14;3.72;;;2.70;;
37065;SDS011;22981;43.080;25.550;2023-04-24T12:50:42;6.33;;;2.77;;
37065;SDS011;22981;43.080;25.550;2023-04-24T12:53:10;3.92;;;2.70;;
37065;SDS011;22981;43.080;25.550;2023-04-24T12:55:38;7.50;;;2.62;;
37065;SDS011;22981;43.080;25.550;2023-04-24T12:58:06;3.40;;;2.52;;
37065;SDS011;22981;43.080;25.550;2023-04-24T13:00:33;4.03;;;2.52;;
37065;SDS011;22981;43.080;25.550;2023-04-24T13:03:01;3.87;;;2.65;;
37065;SDS011;22981;43.080;25.550;2023-04-24T13:05:29;4.20;;;2.60;;
37065;SDS011;22981;43.080;25.550;2023-04-24T13:07:57;3.92;;;2.10;;
37065;SDS011;22981;43.080;25.550;2023-04-24T13:10:24;4.67;;;2.30;;
37065;SDS011;22981;43.080;25.550;2023-04-24T13:12:52;4.53;;;2.30;;
37065;SDS011;22981;43.080;25.550;2023-04-24T13:15:20;3.65;;;2.50;;
37065;SDS011;22981;43.080;25.550;2023-04-24T13:17:47;4.03;;;2.70;;
37065;SDS011;22981;43.080;25.550;2023-04-24T13:20:15;2.37;;;2.15;;
37065;SDS011;22981;43.080;25.550;2023-04-24T13:22:43;3.02;;;2.40;;
37065;SDS011;22981;43.080;25.550;2023-04-24T13:25:11;2.47;;;2.20;;
37065;SDS011;22981;43.080;25.550;2023-04-24T13:27:38;4.42;;;2.58;;
37065;SDS011;22981;43.080;25.550;2023-04-24T13:30:06;3.92;;;2.58;;
37065;SDS011;22981;43.080;25.550;2023-04-24T13:32:34;4.35;;;2.37;;
37065;SDS011;22981;43.080;25.550;2023-04-24T13:35:02;4.30;;;2.30;;
37065;SDS011;22981;43.080;25.550;2023-04-24T13:37:30;4.12;;;2.67;;
37065;SDS011;22981;43.080;25.550;2023-04-24T13:39:57;4.90;;;2.50;;
37065;SDS011;22981;43.080;25.550;2023-04-24T13:42:25;4.05;;;2.50;;
37065;SDS011;22981;43.080;25.550;2023-04-24T13:44:52;5.15;;;4.65;;
37065;SDS011;22981;43.080;25.550;2023-04-24T13:47:21;8.03;;;3.77;;
37065;SDS011;22981;43.080;25.550;2023-04-24T13:49:51;10.48;;;8.90;;
37065;SDS011;22981;43.080;25.550;2023-04-24T13:52:19;11.75;;;8.75;;
37065;SDS011;22981;43.080;25.550;2023-04-24T13:54:47;4.87;;;3.80;;
37065;SDS011;22981;43.080;25.550;2023-04-24T13:57:14;6.00;;;3.83;;
37065;SDS011;22981;43.080;25.550;2023-04-24T13:59:42;7.80;;;3.92;;
37065;SDS011;22981;43.080;25.550;2023-04-24T14:02:10;4.95;;;3.20;;
37065;SDS011;22981;43.080;25.550;2023-04-24T14:04:38;5.10;;;3.12;;
37065;SDS011;22981;43.080;25.550;2023-04-24T14:07:05;4.25;;;3.17;;
37065;SDS011;22981;43.080;25.550;2023-04-24T14:09:34;4.40;;;3.00;;
37065;SDS011;22981;43.080;25.550;2023-04-24T14:12:01;4.25;;;3.33;;
37065;SDS011;22981;43.080;25.550;2023-04-24T14:14:29;5.45;;;3.05;;
37065;SDS011;22981;43.080;25.550;2023-04-24T14:16:57;6.47;;;3.98;;
37065;SDS011;22981;43.080;25.550;2023-04-24T14:19:24;4.72;;;3.47;;
37065;SDS011;22981;43.080;25.550;2023-04-24T14:21:52;7.58;;;3.45;;
37065;SDS011;22981;43.080;25.550;2023-04-24T14:24:21;6.97;;;3.47;;
37065;SDS011;22981;43.080;25.550;2023-04-24T14:26:48;5.90;;;3.25;;
37065;SDS011;22981;43.080;25.550;2023-04-24T14:29:16;4.85;;;3.52;;
37065;SDS011;22981;43.080;25.550;2023-04-24T14:31:45;6.35;;;3.50;;
37065;SDS011;22981;43.080;25.550;2023-04-24T14:34:13;5.72;;;3.87;;
37065;SDS011;22981;43.080;25.550;2023-04-24T14:36:41;6.25;;;3.50;;
37065;SDS011;22981;43.080;25.550;2023-04-24T14:39:09;5.70;;;4.08;;
37065;SDS011;22981;43.080;25.550;2023-04-24T14:41:36;4.65;;;3.60;;
37065;SDS011;22981;43.080;25.550;2023-04-24T14:44:04;9.23;;;3.98;;
37065;SDS011;22981;43.080;25.550;2023-04-24T14:46:32;7.95;;;3.90;;
37065;SDS011;22981;43.080;25.550;2023-04-24T14:49:00;7.85;;;4.00;;
37065;SDS011;22981;43.080;25.550;2023-04-24T14:51:27;6.53;;;4.25;;
37065;SDS011;22981;43.080;25.550;2023-04-24T14:53:56;4.17;;;3.75;;
37065;SDS011;22981;43.080;25.550;2023-04-24T14:56:24;8.08;;;3.87;;
37065;SDS011;22981;43.080;25.550;2023-04-24T14:58:52;5.90;;;3.87;;
37065;SDS011;22981;43.080;25.550;2023-04-24T15:01:20;7.05;;;3.95;;